Bmc Master — V7ZF7 — position and weather

sailwx.info

Track history (hours):
 
Tides and Currents Weather Stations Pressure Air Temp Water Temp Dewpoint Dewpoint Depression Visibility Wind Speed Wind Dir Waves Ship Positions

Bmc Master

Last reported at 2018-Jan-11 18:54 UTC. Time now 2018-Jan-20 13:28 UTC.
Position N 36°03' W 004°22'.
Warning: this ship's position is 8 days out of date.

Length 116 m; draft 6.6 m.

Type: Cargo ship. MMSI: 538004813.

Date/timePositionNaut miles runAvg speedWind from/ knotsBaromVisibWave heightAir tempDewpointWater temp
2018-Jan-11 18:54N 36°03' W 004°22'713.3
2018-Jan-11 18:23N 36°04' W 004°30'513.9
2018-Jan-11 18:00N 36°03' W 004°37'612.7
2018-Jan-11 17:30N 36°03' W 004°45'713.1
2018-Jan-11 16:58N 36°02' W 004°53'715.2
2018-Jan-11 16:30N 36°02' W 005°02'714.0
2018-Jan-11 16:00N 36°02' W 005°11'612.6
2018-Jan-11 15:30N 36°04' W 005°18'4 7.7
2018-Jan-11 15:01N 36°06' W 005°22'0 0.6
2018-Jan-11 14:29N 36°06' W 005°21'0 0.1
2018-Jan-11 13:56N 36°06' W 005°21'0 0.2
2018-Jan-11 13:29N 36°06' W 005°21'0 0.1
2018-Jan-11 12:59N 36°06' W 005°21'0 0.1
2018-Jan-11 12:29N 36°06' W 005°21'0 0.2
2018-Jan-11 11:59N 36°06' W 005°21'0 0.1
2018-Jan-11 11:29N 36°06' W 005°21'0 0.1
2018-Jan-11 10:59N 36°06' W 005°21'0 0.1
2018-Jan-11 10:29N 36°06' W 005°21'0 0.1
2018-Jan-11 09:59N 36°06' W 005°21'0 0.1
2018-Jan-11 09:29N 36°06' W 005°21'0 0.0
2018-Jan-11 08:59N 36°06' W 005°21'0 0.0
2018-Jan-11 08:29N 36°06' W 005°21'0 0.0
2018-Jan-11 07:59N 36°06' W 005°21'0 0.0
2018-Jan-11 07:29N 36°06' W 005°21'0 0.0
2018-Jan-11 06:59N 36°06' W 005°21'0 0.1
2018-Jan-11 06:29N 36°06' W 005°21'0 0.1
2018-Jan-11 05:59N 36°06' W 005°21'0 0.1
2018-Jan-11 05:29N 36°07' W 005°21'0 0.8
2018-Jan-11 05:00N 36°06' W 005°21'0 0.3
2018-Jan-11 04:31N 36°06' W 005°21'1 2.8
2018-Jan-11 04:00N 36°05' W 005°20'2 4.1
2018-Jan-11 03:31N 36°05' W 005°17'2 3.7
2018-Jan-11 03:00N 36°05' W 005°15'1 2.9
2018-Jan-11 02:30N 36°05' W 005°13'2 3.7
2018-Jan-11 02:00N 36°07' W 005°13'3 5.0
2018-Jan-11 01:30N 36°08' W 005°10'1 1.9
2018-Jan-11 01:00N 36°08' W 005°09'1 1.9
2018-Jan-11 00:29N 36°08' W 005°08'1 1.4
2018-Jan-11 00:00N 36°09' W 005°09'1 1.1
2018-Jan-10 23:31N 36°09' W 005°10'1 1.2
2018-Jan-10 23:00N 36°09' W 005°09'0 0.7
2018-Jan-10 22:30N 36°09' W 005°09'1 1.0
2018-Jan-10 21:58N 36°09' W 005°09'1 1.9
2018-Jan-10 21:28N 36°08' W 005°10'1 1.6
2018-Jan-10 20:59N 36°08' W 005°11'2 4.9
2018-Jan-10 20:30N 36°06' W 005°11'5 9.3
2018-Jan-10 20:00N 36°01' W 005°14'5 9.4
2018-Jan-10 19:31N 35°59' W 005°19'5 9.6
2018-Jan-10 19:00N 35°58' W 005°25'4 9.0
2018-Jan-10 18:30N 35°57' W 005°30'5 9.9
2018-Jan-10 18:00N 35°55' W 005°36'510.2
2018-Jan-10 17:30N 35°54' W 005°42'5 9.7
2018-Jan-10 17:00N 35°54' W 005°48'610.4
2018-Jan-10 16:28N 35°53' W 005°55'  
Track history (hours):
 
Tides and Currents Weather Stations Pressure Air Temp Water Temp Dewpoint Dewpoint Depression Visibility Wind Speed Wind Dir Waves Ship Positions

Bmc Master

Last reported at 2018-Jan-11 18:54 UTC. Time now 2018-Jan-20 13:28 UTC.
Position N 36°03' W 004°22'.
Warning: this ship's position is 8 days out of date.

Length 116 m; draft 6.6 m.

Type: Cargo ship. MMSI: 538004813.

Date/timePositionNaut miles runAvg speedWind from/ knotsBaromVisibWave heightAir tempDewpointWater temp
2018-Jan-11 18:54N 36°03' W 004°22'713.3
2018-Jan-11 18:23N 36°04' W 004°30'513.9
2018-Jan-11 18:00N 36°03' W 004°37'612.7
2018-Jan-11 17:30N 36°03' W 004°45'713.1
2018-Jan-11 16:58N 36°02' W 004°53'715.2
2018-Jan-11 16:30N 36°02' W 005°02'714.0
2018-Jan-11 16:00N 36°02' W 005°11'612.6
2018-Jan-11 15:30N 36°04' W 005°18'4 7.7
2018-Jan-11 15:01N 36°06' W 005°22'0 0.6
2018-Jan-11 14:29N 36°06' W 005°21'0 0.1
2018-Jan-11 13:56N 36°06' W 005°21'0 0.2
2018-Jan-11 13:29N 36°06' W 005°21'0 0.1
2018-Jan-11 12:59N 36°06' W 005°21'0 0.1
2018-Jan-11 12:29N 36°06' W 005°21'0 0.2
2018-Jan-11 11:59N 36°06' W 005°21'0 0.1
2018-Jan-11 11:29N 36°06' W 005°21'0 0.1
2018-Jan-11 10:59N 36°06' W 005°21'0 0.1
2018-Jan-11 10:29N 36°06' W 005°21'0 0.1
2018-Jan-11 09:59N 36°06' W 005°21'0 0.1
2018-Jan-11 09:29N 36°06' W 005°21'0 0.0
2018-Jan-11 08:59N 36°06' W 005°21'0 0.0
2018-Jan-11 08:29N 36°06' W 005°21'0 0.0
2018-Jan-11 07:59N 36°06' W 005°21'0 0.0
2018-Jan-11 07:29N 36°06' W 005°21'0 0.0
2018-Jan-11 06:59N 36°06' W 005°21'0 0.1
2018-Jan-11 06:29N 36°06' W 005°21'0 0.1
2018-Jan-11 05:59N 36°06' W 005°21'0 0.1
2018-Jan-11 05:29N 36°07' W 005°21'0 0.8
2018-Jan-11 05:00N 36°06' W 005°21'0 0.3
2018-Jan-11 04:31N 36°06' W 005°21'1 2.8
2018-Jan-11 04:00N 36°05' W 005°20'2 4.1
2018-Jan-11 03:31N 36°05' W 005°17'2 3.7
2018-Jan-11 03:00N 36°05' W 005°15'1 2.9
2018-Jan-11 02:30N 36°05' W 005°13'2 3.7
2018-Jan-11 02:00N 36°07' W 005°13'3 5.0
2018-Jan-11 01:30N 36°08' W 005°10'1 1.9
2018-Jan-11 01:00N 36°08' W 005°09'1 1.9
2018-Jan-11 00:29N 36°08' W 005°08'1 1.4
2018-Jan-11 00:00N 36°09' W 005°09'1 1.1
2018-Jan-10 23:31N 36°09' W 005°10'1 1.2
2018-Jan-10 23:00N 36°09' W 005°09'0 0.7
2018-Jan-10 22:30N 36°09' W 005°09'1 1.0
2018-Jan-10 21:58N 36°09' W 005°09'1 1.9
2018-Jan-10 21:28N 36°08' W 005°10'1 1.6
2018-Jan-10 20:59N 36°08' W 005°11'2 4.9
2018-Jan-10 20:30N 36°06' W 005°11'5 9.3
2018-Jan-10 20:00N 36°01' W 005°14'5 9.4
2018-Jan-10 19:31N 35°59' W 005°19'5 9.6
2018-Jan-10 19:00N 35°58' W 005°25'4 9.0
2018-Jan-10 18:30N 35°57' W 005°30'5 9.9
2018-Jan-10 18:00N 35°55' W 005°36'510.2
2018-Jan-10 17:30N 35°54' W 005°42'5 9.7
2018-Jan-10 17:00N 35°54' W 005°48'610.4
2018-Jan-10 16:28N 35°53' W 005°55'  

Dump ship's entire track history